Time;durP1;ratioP1;P1;durP2;ratioP2;P2;SDS_P1;SDS_P2;PMS_P1;PMS_P2;Temp;Humidity;BMP_temperature;BMP_pressure;BME280_temperature;BME280_humidity;BME280_pressure;Samples;Min_cycle;Max_cycle;Signal;HPM_P1;HPM_P2
2022/01/30 00:01:23;;;;;;;2.95;1.38;;;;;;;;;;5051550;28;20053;-66
2022/01/30 00:03:49;;;;;;;2.30;1.65;;;;;;;;;;5051176;28;20049;-68
2022/01/30 00:06:16;;;;;;;1.88;1.23;;;;;;;;;;5051227;28;20064;-69
2022/01/30 00:08:42;;;;;;;1.63;1.20;;;;;;;;;;5051397;28;20075;-69
2022/01/30 00:11:15;;;;;;;2.08;1.02;;;;;;;;;;5051411;28;20048;-69
2022/01/30 00:13:41;;;;;;;0.88;0.73;;;;;;;;;;5051154;28;20102;-68
2022/01/30 00:16:10;;;;;;;0.80;0.73;;;;;;;;;;5051554;28;20103;-69
2022/01/30 00:18:59;;;;;;;1.10;0.68;;;;;;;;;;5051279;28;20098;-69
2022/01/30 00:24:00;;;;;;;1.45;0.98;;;;;;;;;;5051059;28;20057;-68
2022/01/30 00:26:30;;;;;;;0.90;0.80;;;;;;;;;;5051369;28;20099;-68
2022/01/30 00:28:57;;;;;;;0.98;0.75;;;;;;;;;;5051535;28;20106;-69
2022/01/30 00:31:25;;;;;;;1.17;0.85;;;;;;;;;;5051591;28;20049;-67
2022/01/30 00:34:11;;;;;;;0.88;0.63;;;;;;;;;;5051662;28;20152;-67
2022/01/30 00:36:38;;;;;;;0.32;0.32;;;;;;;;;;5051145;28;20045;-69
2022/01/30 00:39:05;;;;;;;0.93;0.73;;;;;;;;;;5051107;28;20103;-69
2022/01/30 00:41:31;;;;;;;1.70;0.60;;;;;;;;;;5051111;28;20057;-69
2022/01/30 00:43:58;;;;;;;1.15;0.60;;;;;;;;;;5050882;28;20127;-69
2022/01/30 00:46:25;;;;;;;1.08;0.50;;;;;;;;;;5051199;28;20396;-69
2022/01/30 00:48:51;;;;;;;0.77;0.70;;;;;;;;;;5050957;28;20103;-70
2022/01/30 00:51:18;;;;;;;1.02;0.75;;;;;;;;;;5051113;28;20432;-69
2022/01/30 00:53:45;;;;;;;1.20;0.80;;;;;;;;;;5050916;28;20087;-69
2022/01/30 00:56:11;;;;;;;1.80;0.68;;;;;;;;;;5051077;28;20532;-69
2022/01/30 00:58:38;;;;;;;1.15;1.05;;;;;;;;;;5050891;28;20044;-69
2022/01/30 01:01:05;;;;;;;0.57;0.57;;;;;;;;;;5051003;28;20416;-69
2022/01/30 01:03:31;;;;;;;3.72;1.75;;;;;;;;;;5050719;28;20076;-69
2022/01/30 01:05:59;;;;;;;1.35;0.70;;;;;;;;;;5049972;28;20336;-69
2022/01/30 01:08:33;;;;;;;1.33;0.82;;;;;;;;;;5050811;28;20052;-69
2022/01/30 01:11:28;;;;;;;1.85;0.80;;;;;;;;;;5050856;28;20496;-69
2022/01/30 01:24:37;;;;;;;1.40;1.00;;;;;;;;;;5054372;28;20466;-69
2022/01/30 01:27:03;;;;;;;1.38;0.82;;;;;;;;;;5054558;28;20072;-69
2022/01/30 01:29:30;;;;;;;2.20;1.00;;;;;;;;;;5054197;28;20048;-70
2022/01/30 01:31:57;;;;;;;1.23;1.10;;;;;;;;;;5054124;28;20488;-69
2022/01/30 01:36:56;;;;;;;1.25;0.90;;;;;;;;;;5054571;28;20061;-69
2022/01/30 01:39:23;;;;;;;1.42;1.10;;;;;;;;;;5054168;28;20103;-69
2022/01/30 01:41:50;;;;;;;1.52;1.00;;;;;;;;;;5054177;28;20053;-69
2022/01/30 01:44:20;;;;;;;1.13;1.02;;;;;;;;;;5054095;28;20118;-69
2022/01/30 01:46:48;;;;;;;1.42;1.08;;;;;;;;;;5054125;28;20566;-70
2022/01/30 01:49:23;;;;;;;3.95;1.42;;;;;;;;;;5054018;28;20053;-69
2022/01/30 01:52:02;;;;;;;2.72;1.10;;;;;;;;;;5054025;28;20076;-69
2022/01/30 01:54:29;;;;;;;2.78;1.13;;;;;;;;;;5054516;28;20045;-69
2022/01/30 01:56:56;;;;;;;2.88;1.17;;;;;;;;;;5054114;28;20048;-68
2022/01/30 01:59:22;;;;;;;3.55;1.92;;;;;;;;;;5052746;28;20106;-69
2022/01/30 02:01:52;;;;;;;3.08;1.35;;;;;;;;;;5052710;28;20111;-70
2022/01/30 02:04:20;;;;;;;1.05;0.95;;;;;;;;;;5053716;28;20527;-70
2022/01/30 02:06:46;;;;;;;3.55;1.00;;;;;;;;;;5052680;28;20061;-70
2022/01/30 02:09:13;;;;;;;1.35;1.20;;;;;;;;;;5052458;28;20179;-69
2022/01/30 02:11:44;;;;;;;2.08;1.10;;;;;;;;;;5052521;28;20076;-70
2022/01/30 02:14:25;;;;;;;1.80;1.10;;;;;;;;;;5036339;28;20041;-69
2022/01/30 02:25:44;;;;;;;1.35;0.80;;;;;;;;;;4997678;28;20104;-69
2022/01/30 02:28:14;;;;;;;0.73;0.60;;;;;;;;;;5038259;28;20083;-69
2022/01/30 02:30:49;;;;;;;0.77;0.57;;;;;;;;;;5053457;28;20053;-69
2022/01/30 02:33:16;;;;;;;0.57;0.47;;;;;;;;;;5053156;28;20492;-70
2022/01/30 02:35:42;;;;;;;0.57;0.50;;;;;;;;;;5052006;28;20053;-70
2022/01/30 02:38:09;;;;;;;0.77;0.70;;;;;;;;;;5053233;28;20115;-68
2022/01/30 02:40:40;;;;;;;1.83;0.65;;;;;;;;;;5053139;28;20102;-69
2022/01/30 02:43:07;;;;;;;0.90;0.77;;;;;;;;;;5053244;28;20041;-70
2022/01/30 02:45:39;;;;;;;1.33;0.80;;;;;;;;;;5053062;28;20108;-69
2022/01/30 02:50:50;;;;;;;3.63;1.50;;;;;;;;;;5053055;28;20056;-69
2022/01/30 02:53:17;;;;;;;2.13;1.30;;;;;;;;;;5052731;28;20561;-68
2022/01/30 02:55:44;;;;;;;2.80;1.27;;;;;;;;;;5052809;28;20101;-69
2022/01/30 02:58:11;;;;;;;1.70;1.05;;;;;;;;;;5052694;28;20049;-70
2022/01/30 03:00:37;;;;;;;4.15;1.17;;;;;;;;;;5052960;28;20545;-68
2022/01/30 03:03:04;;;;;;;2.47;1.33;;;;;;;;;;5052486;28;20072;-70
2022/01/30 03:05:31;;;;;;;3.53;1.60;;;;;;;;;;5052622;28;20058;-70
2022/01/30 03:07:57;;;;;;;57.85;20.45;;;;;;;;;;5052821;28;20103;-70
2022/01/30 03:10:24;;;;;;;2.75;1.70;;;;;;;;;;5053332;28;20045;-69
2022/01/30 03:12:50;;;;;;;2.47;1.58;;;;;;;;;;5052218;28;20107;-70
2022/01/30 03:15:17;;;;;;;4.50;1.45;;;;;;;;;;5052680;28;20436;-70
2022/01/30 03:17:44;;;;;;;1.83;1.23;;;;;;;;;;5052447;28;20045;-69
2022/01/30 03:20:10;;;;;;;3.92;1.48;;;;;;;;;;5052395;28;20049;-69
2022/01/30 03:22:38;;;;;;;1.75;1.30;;;;;;;;;;5052140;28;20573;-69
2022/01/30 03:25:05;;;;;;;2.20;1.10;;;;;;;;;;5052457;28;20051;-69
2022/01/30 03:27:31;;;;;;;2.10;1.20;;;;;;;;;;5052224;28;20079;-69
2022/01/30 03:30:06;;;;;;;1.77;1.67;;;;;;;;;;5052427;28;20049;-68
2022/01/30 03:32:34;;;;;;;1.30;1.20;;;;;;;;;;5052166;28;20052;-68
2022/01/30 03:35:01;;;;;;;2.05;1.00;;;;;;;;;;5052437;28;20095;-69
2022/01/30 03:37:28;;;;;;;1.27;1.00;;;;;;;;;;5052109;28;20095;-68
2022/01/30 03:39:54;;;;;;;1.63;0.85;;;;;;;;;;5051347;28;20085;-68
2022/01/30 03:42:21;;;;;;;1.23;1.08;;;;;;;;;;5051889;28;20488;-68
2022/01/30 03:44:48;;;;;;;1.58;0.85;;;;;;;;;;5051771;28;20076;-69
2022/01/30 03:47:14;;;;;;;1.48;0.90;;;;;;;;;;5052153;28;20488;-69
2022/01/30 03:49:41;;;;;;;1.58;0.95;;;;;;;;;;5051740;28;20059;-68
2022/01/30 03:52:08;;;;;;;2.85;0.90;;;;;;;;;;5052247;28;20094;-69
2022/01/30 03:54:35;;;;;;;1.70;0.80;;;;;;;;;;5051618;28;20041;-68
2022/01/30 03:57:03;;;;;;;5.55;2.20;;;;;;;;;;5052003;28;20431;-69
2022/01/30 03:59:29;;;;;;;2.05;0.75;;;;;;;;;;5051710;28;20083;-68
2022/01/30 04:01:56;;;;;;;2.30;0.90;;;;;;;;;;5051749;28;20107;-69
2022/01/30 04:04:23;;;;;;;2.70;1.23;;;;;;;;;;5051404;28;20522;-69
2022/01/30 04:06:49;;;;;;;2.72;1.02;;;;;;;;;;5051598;28;20049;-68
2022/01/30 04:09:16;;;;;;;4.88;1.23;;;;;;;;;;5050458;28;20107;-69
2022/01/30 04:11:43;;;;;;;1.75;1.20;;;;;;;;;;5051796;28;20114;-69
2022/01/30 04:14:10;;;;;;;5.13;1.70;;;;;;;;;;5051384;28;20562;-68
2022/01/30 04:16:37;;;;;;;2.58;1.17;;;;;;;;;;5051529;28;20114;-68
2022/01/30 04:19:04;;;;;;;4.25;1.30;;;;;;;;;;5051479;28;20049;-69
2022/01/30 04:21:31;;;;;;;2.40;1.10;;;;;;;;;;5051427;28;20125;-68
2022/01/30 04:23:57;;;;;;;5.55;1.42;;;;;;;;;;5051223;28;20099;-67
2022/01/30 04:26:24;;;;;;;2.80;1.58;;;;;;;;;;5051385;28;20500;-68
2022/01/30 04:28:51;;;;;;;4.18;1.60;;;;;;;;;;5051281;28;20099;-69
2022/01/30 04:31:18;;;;;;;4.43;1.52;;;;;;;;;;5051466;28;20092;-68
2022/01/30 04:33:44;;;;;;;3.22;1.42;;;;;;;;;;5051127;28;20044;-68
2022/01/30 04:36:16;;;;;;;4.70;1.45;;;;;;;;;;5051407;28;20130;-69
2022/01/30 04:52:29;;;;;;;4.18;1.90;;;;;;;;;;5053184;28;20083;-68
2022/01/30 05:07:49;;;;;;;6.13;2.00;;;;;;;;;;5054881;28;20083;-68
2022/01/30 05:10:15;;;;;;;8.63;1.85;;;;;;;;;;5054957;28;20473;-69
2022/01/30 05:12:51;;;;;;;8.57;2.13;;;;;;;;;;5054549;28;20094;-69
2022/01/30 05:15:19;;;;;;;4.60;2.00;;;;;;;;;;5054874;28;20459;-68
2022/01/30 05:17:46;;;;;;;5.10;2.20;;;;;;;;;;5054611;28;20111;-68
2022/01/30 05:20:13;;;;;;;9.05;3.00;;;;;;;;;;5053744;28;20103;-69
2022/01/30 05:22:40;;;;;;;4.05;2.08;;;;;;;;;;5054322;28;20573;-68
2022/01/30 05:25:08;;;;;;;7.40;3.40;;;;;;;;;;5054832;28;20048;-68
2022/01/30 05:27:34;;;;;;;5.82;2.22;;;;;;;;;;5054538;28;20103;-68
2022/01/30 05:30:02;;;;;;;4.47;1.85;;;;;;;;;;5054755;28;20106;-68
2022/01/30 05:32:28;;;;;;;8.20;2.80;;;;;;;;;;5054485;28;20427;-69
2022/01/30 05:34:56;;;;;;;7.68;2.58;;;;;;;;;;5054672;28;20432;-68
2022/01/30 05:37:22;;;;;;;10.73;3.35;;;;;;;;;;5054449;28;20057;-68
2022/01/30 05:39:49;;;;;;;8.10;3.03;;;;;;;;;;5054359;28;20057;-68
2022/01/30 05:42:16;;;;;;;8.00;2.28;;;;;;;;;;5054535;28;20111;-68
2022/01/30 05:44:51;;;;;;;10.25;2.92;;;;;;;;;;5054057;28;20096;-68
2022/01/30 05:47:28;;;;;;;7.63;3.00;;;;;;;;;;5054341;28;20099;-67
2022/01/30 05:49:55;;;;;;;5.75;2.60;;;;;;;;;;5054258;28;20053;-68
2022/01/30 05:52:22;;;;;;;10.43;3.13;;;;;;;;;;5054291;28;20099;-69
2022/01/30 05:54:48;;;;;;;8.10;2.53;;;;;;;;;;5053906;28;20130;-68
2022/01/30 05:57:15;;;;;;;5.35;2.80;;;;;;;;;;5054155;28;20049;-69
2022/01/30 05:59:42;;;;;;;9.95;3.05;;;;;;;;;;5053877;28;20084;-68
2022/01/30 06:02:08;;;;;;;8.95;2.17;;;;;;;;;;5053933;28;20126;-67
2022/01/30 06:04:35;;;;;;;8.57;3.20;;;;;;;;;;5052898;28;20210;-68
2022/01/30 06:07:02;;;;;;;6.47;3.08;;;;;;;;;;5054190;28;20048;-68
2022/01/30 06:09:29;;;;;;;10.40;3.42;;;;;;;;;;5055583;28;20077;-67
2022/01/30 06:11:55;;;;;;;12.80;3.08;;;;;;;;;;5059651;28;20076;-69
2022/01/30 06:14:22;;;;;;;8.40;2.95;;;;;;;;;;5063635;28;20515;-69
2022/01/30 06:16:49;;;;;;;7.55;2.60;;;;;;;;;;5060572;28;20100;-68
2022/01/30 06:19:18;;;;;;;6.88;2.85;;;;;;;;;;5058708;28;20136;-68
2022/01/30 06:21:45;;;;;;;11.27;2.78;;;;;;;;;;5058679;28;20045;-69
2022/01/30 06:24:12;;;;;;;8.57;2.95;;;;;;;;;;5055204;28;20457;-69
2022/01/30 06:26:38;;;;;;;6.20;2.92;;;;;;;;;;5054992;28;20470;-69
2022/01/30 06:29:05;;;;;;;8.27;2.80;;;;;;;;;;5054627;28;20048;-68
2022/01/30 06:31:32;;;;;;;9.38;3.10;;;;;;;;;;5054364;28;20045;-68
2022/01/30 06:33:58;;;;;;;7.50;2.88;;;;;;;;;;5054368;28;20507;-68
2022/01/30 06:36:25;;;;;;;9.80;3.58;;;;;;;;;;5058557;28;20218;-68
2022/01/30 06:38:53;;;;;;;9.80;3.35;;;;;;;;;;5066087;28;20045;-67
2022/01/30 06:41:20;;;;;;;10.15;3.20;;;;;;;;;;5053279;28;20076;-69
2022/01/30 06:43:46;;;;;;;9.23;2.60;;;;;;;;;;5052921;28;20049;-68
2022/01/30 06:46:15;;;;;;;8.18;3.00;;;;;;;;;;5051910;28;20041;-68
2022/01/30 06:48:42;;;;;;;8.73;2.50;;;;;;;;;;5052968;28;20102;-67
2022/01/30 06:51:08;;;;;;;11.65;2.83;;;;;;;;;;5053245;28;20045;-69
2022/01/30 06:53:35;;;;;;;8.48;2.47;;;;;;;;;;5052789;28;20183;-69
2022/01/30 06:56:02;;;;;;;10.15;2.70;;;;;;;;;;5053147;28;20114;-68
2022/01/30 06:58:29;;;;;;;8.82;2.50;;;;;;;;;;5053197;28;20057;-68
2022/01/30 07:00:55;;;;;;;7.90;2.70;;;;;;;;;;5052929;28;20052;-68
2022/01/30 07:03:22;;;;;;;15.93;3.03;;;;;;;;;;5052786;28;20056;-68
2022/01/30 07:05:49;;;;;;;6.68;2.00;;;;;;;;;;5052622;28;20443;-69
2022/01/30 07:08:15;;;;;;;9.40;3.03;;;;;;;;;;5052714;28;20049;-69
2022/01/30 07:10:42;;;;;;;11.02;2.47;;;;;;;;;;5052811;28;20083;-70
2022/01/30 07:13:11;;;;;;;5.13;2.45;;;;;;;;;;5052448;28;20098;-68
2022/01/30 07:15:37;;;;;;;5.10;2.03;;;;;;;;;;5051489;28;20492;-70
2022/01/30 07:18:04;;;;;;;6.25;2.25;;;;;;;;;;5052701;28;20508;-69
2022/01/30 07:20:30;;;;;;;6.32;2.58;;;;;;;;;;5052476;28;20493;-69
2022/01/30 07:22:57;;;;;;;7.85;2.85;;;;;;;;;;5052455;28;20106;-68
2022/01/30 07:25:24;;;;;;;10.25;2.53;;;;;;;;;;5052269;28;20048;-69
2022/01/30 07:27:50;;;;;;;8.52;2.25;;;;;;;;;;5052264;28;20060;-69
2022/01/30 07:30:17;;;;;;;16.40;2.88;;;;;;;;;;5052340;28;20045;-68
2022/01/30 07:32:44;;;;;;;12.05;2.50;;;;;;;;;;5052041;28;20107;-69
2022/01/30 07:35:10;;;;;;;8.55;2.03;;;;;;;;;;5052109;28;20041;-69
2022/01/30 07:37:37;;;;;;;8.20;2.50;;;;;;;;;;5052200;28;20107;-68
2022/01/30 07:40:04;;;;;;;11.30;2.35;;;;;;;;;;5051293;28;20098;-69
2022/01/30 07:42:33;;;;;;;8.73;3.05;;;;;;;;;;5051804;28;20090;-68
2022/01/30 07:44:59;;;;;;;12.70;3.60;;;;;;;;;;5050714;28;20471;-68
2022/01/30 07:47:26;;;;;;;11.35;3.03;;;;;;;;;;5052051;28;20053;-67
2022/01/30 07:49:52;;;;;;;11.98;2.60;;;;;;;;;;5051806;28;20053;-68
2022/01/30 07:52:22;;;;;;;9.32;2.40;;;;;;;;;;5052191;28;20083;-72
2022/01/30 07:54:49;;;;;;;11.10;3.00;;;;;;;;;;5051810;28;20049;-70
2022/01/30 07:57:19;;;;;;;14.43;3.13;;;;;;;;;;5052095;28;20470;-72
2022/01/30 07:59:46;;;;;;;12.45;2.75;;;;;;;;;;5051637;28;20059;-70
2022/01/30 08:02:13;;;;;;;9.43;2.80;;;;;;;;;;5051652;28;20095;-70
2022/01/30 08:04:40;;;;;;;10.07;2.33;;;;;;;;;;5051321;28;20045;-69
2022/01/30 08:07:07;;;;;;;14.48;3.78;;;;;;;;;;5051668;28;20049;-68
2022/01/30 08:09:36;;;;;;;12.60;3.60;;;;;;;;;;5051603;28;20554;-70
2022/01/30 08:12:03;;;;;;;11.52;4.03;;;;;;;;;;5051649;28;20053;-70
2022/01/30 08:14:30;;;;;;;13.13;3.95;;;;;;;;;;5049714;28;20049;-71
2022/01/30 08:16:56;;;;;;;14.93;3.38;;;;;;;;;;5051738;28;20048;-69
2022/01/30 08:19:25;;;;;;;10.77;3.38;;;;;;;;;;5049989;28;20359;-69
2022/01/30 08:21:52;;;;;;;11.15;3.72;;;;;;;;;;5049430;28;20348;-69
2022/01/30 08:24:22;;;;;;;10.00;2.80;;;;;;;;;;5049121;28;20500;-70
2022/01/30 08:26:48;;;;;;;9.90;2.92;;;;;;;;;;5048991;28;20049;-70
2022/01/30 08:29:15;;;;;;;7.03;2.83;;;;;;;;;;5049350;28;20061;-69
2022/01/30 08:31:42;;;;;;;14.68;2.72;;;;;;;;;;5048085;28;20045;-69
2022/01/30 08:34:09;;;;;;;10.75;3.63;;;;;;;;;;5048462;28;20424;-68
2022/01/30 08:36:35;;;;;;;10.95;3.10;;;;;;;;;;5049287;28;20071;-69
2022/01/30 08:39:02;;;;;;;12.65;2.88;;;;;;;;;;5047907;28;20095;-69
2022/01/30 08:41:30;;;;;;;11.70;3.10;;;;;;;;;;5048114;28;20055;-69
2022/01/30 08:43:56;;;;;;;15.85;3.80;;;;;;;;;;5048993;28;20045;-70
2022/01/30 08:46:23;;;;;;;6.88;2.80;;;;;;;;;;5048894;28;20052;-69
2022/01/30 08:48:50;;;;;;;17.48;3.00;;;;;;;;;;5049219;28;20088;-69
2022/01/30 08:51:16;;;;;;;7.80;2.72;;;;;;;;;;5049301;28;20075;-70
2022/01/30 08:53:43;;;;;;;10.20;2.40;;;;;;;;;;5049121;28;20658;-67
2022/01/30 08:56:09;;;;;;;12.02;2.65;;;;;;;;;;5048888;28;20500;-68
2022/01/30 08:58:36;;;;;;;9.98;2.03;;;;;;;;;;5048432;28;20107;-70
2022/01/30 09:01:02;;;;;;;9.98;2.53;;;;;;;;;;5049157;28;20045;-68
2022/01/30 09:03:29;;;;;;;11.18;2.92;;;;;;;;;;5048970;28;20049;-69
2022/01/30 09:05:56;;;;;;;12.68;2.15;;;;;;;;;;5049020;28;20446;-69
2022/01/30 09:08:31;;;;;;;7.75;2.00;;;;;;;;;;5040875;28;20049;-69
2022/01/30 09:10:58;;;;;;;8.52;2.50;;;;;;;;;;5047316;28;20068;-70
2022/01/30 09:13:25;;;;;;;10.32;2.28;;;;;;;;;;5044910;28;20053;-69
2022/01/30 09:15:56;;;;;;;9.35;2.60;;;;;;;;;;5047048;28;20264;-69
2022/01/30 09:18:25;;;;;;;11.90;2.38;;;;;;;;;;5047265;28;20099;-70
2022/01/30 09:20:52;;;;;;;11.18;2.42;;;;;;;;;;5047028;28;20103;-70
2022/01/30 09:23:18;;;;;;;11.75;2.35;;;;;;;;;;5045511;28;20551;-70
2022/01/30 09:25:46;;;;;;;10.25;2.42;;;;;;;;;;5046809;28;20849;-71
2022/01/30 09:28:14;;;;;;;7.25;2.13;;;;;;;;;;5047786;28;20063;-70
2022/01/30 09:30:40;;;;;;;15.07;2.63;;;;;;;;;;5046954;28;20452;-70
2022/01/30 09:33:07;;;;;;;8.35;2.10;;;;;;;;;;5046602;28;20099;-70
2022/01/30 09:35:33;;;;;;;7.25;1.75;;;;;;;;;;5046894;28;20462;-68
2022/01/30 09:38:01;;;;;;;10.65;2.22;;;;;;;;;;5047307;28;20053;-69
2022/01/30 09:40:28;;;;;;;8.75;2.33;;;;;;;;;;5050986;28;20082;-68
2022/01/30 09:42:54;;;;;;;8.80;2.22;;;;;;;;;;5046904;28;20057;-70
2022/01/30 09:45:22;;;;;;;9.77;2.20;;;;;;;;;;5027266;28;20092;-70
2022/01/30 09:47:49;;;;;;;11.02;2.63;;;;;;;;;;5039185;28;20104;-68
2022/01/30 09:50:17;;;;;;;11.18;2.22;;;;;;;;;;5050489;28;20092;-69
2022/01/30 09:52:44;;;;;;;14.10;2.53;;;;;;;;;;5050186;28;20060;-69
2022/01/30 09:55:11;;;;;;;12.43;2.15;;;;;;;;;;5049710;28;20044;-67
2022/01/30 09:57:39;;;;;;;13.82;1.98;;;;;;;;;;5061775;28;20049;-67
2022/01/30 10:00:08;;;;;;;9.95;3.10;;;;;;;;;;5074424;28;20041;-70
2022/01/30 10:02:35;;;;;;;11.25;2.50;;;;;;;;;;5076959;28;20071;-69
2022/01/30 10:05:02;;;;;;;12.13;3.03;;;;;;;;;;5077098;28;20025;-69
2022/01/30 10:07:58;;;;;;;9.52;3.17;;;;;;;;;;5053042;28;20017;-68
2022/01/30 10:10:28;;;;;;;10.00;2.95;;;;;;;;;;5059929;28;20037;-69
2022/01/30 10:13:06;;;;;;;14.38;2.50;;;;;;;;;;5074563;28;20033;-69
2022/01/30 10:15:56;;;;;;;10.43;2.50;;;;;;;;;;5076326;28;20063;-69
2022/01/30 10:18:26;;;;;;;10.32;3.08;;;;;;;;;;5078410;28;20052;-68
2022/01/30 10:20:53;;;;;;;10.70;2.90;;;;;;;;;;5076873;28;20037;-69
2022/01/30 10:23:31;;;;;;;11.25;2.67;;;;;;;;;;5065848;28;20053;-68
2022/01/30 10:25:57;;;;;;;9.30;2.70;;;;;;;;;;5073753;28;20063;-70
2022/01/30 10:28:31;;;;;;;8.75;2.60;;;;;;;;;;5064741;28;20052;-70
2022/01/30 10:31:02;;;;;;;14.77;3.20;;;;;;;;;;5052290;28;20045;-70
2022/01/30 10:33:45;;;;;;;8.85;3.33;;;;;;;;;;5051944;28;20143;-70
2022/01/30 10:36:20;;;;;;;18.27;4.20;;;;;;;;;;5049186;28;20049;-69
2022/01/30 10:39:17;;;;;;;14.73;2.85;;;;;;;;;;5050066;28;20099;-70
2022/01/30 10:41:52;;;;;;;13.38;3.55;;;;;;;;;;5050973;28;20053;-70
2022/01/30 10:44:19;;;;;;;10.07;3.17;;;;;;;;;;5051938;28;20060;-70
2022/01/30 10:46:48;;;;;;;8.25;2.45;;;;;;;;;;5051184;28;20063;-71
2022/01/30 10:49:20;;;;;;;8.13;1.92;;;;;;;;;;5049827;28;20405;-71
2022/01/30 10:52:00;;;;;;;10.95;1.92;;;;;;;;;;5051590;28;20053;-70
2022/01/30 10:54:34;;;;;;;9.20;2.25;;;;;;;;;;5051021;28;20079;-69
2022/01/30 10:57:20;;;;;;;11.90;2.53;;;;;;;;;;5050698;28;20492;-69
2022/01/30 10:59:52;;;;;;;6.40;2.00;;;;;;;;;;5049874;28;20102;-68
2022/01/30 11:02:21;;;;;;;13.50;2.33;;;;;;;;;;5051676;28;20064;-68
2022/01/30 11:04:50;;;;;;;11.95;2.63;;;;;;;;;;5051541;28;20475;-68
2022/01/30 11:07:20;;;;;;;12.95;4.05;;;;;;;;;;5050966;28;20667;-69
2022/01/30 11:10:23;;;;;;;9.27;3.20;;;;;;;;;;5050341;28;20052;-68
2022/01/30 11:13:07;;;;;;;10.60;2.30;;;;;;;;;;5049443;28;20049;-70
2022/01/30 11:15:42;;;;;;;8.65;1.95;;;;;;;;;;5049056;28;20110;-69
2022/01/30 11:18:12;;;;;;;13.45;2.25;;;;;;;;;;5040293;28;20127;-69
2022/01/30 11:20:39;;;;;;;7.63;2.10;;;;;;;;;;5037084;28;20053;-69
2022/01/30 11:23:06;;;;;;;13.05;2.17;;;;;;;;;;5046397;28;20045;-69
2022/01/30 11:25:36;;;;;;;10.65;2.13;;;;;;;;;;5049130;28;20052;-69
2022/01/30 11:28:04;;;;;;;15.23;2.78;;;;;;;;;;5048040;28;20048;-70
2022/01/30 11:30:50;;;;;;;14.57;2.83;;;;;;;;;;5049081;28;20049;-68
2022/01/30 11:33:16;;;;;;;10.90;2.08;;;;;;;;;;5048682;28;20041;-69
2022/01/30 11:35:43;;;;;;;8.52;2.42;;;;;;;;;;5030829;28;20512;-68
2022/01/30 11:38:10;;;;;;;6.88;2.22;;;;;;;;;;5047366;28;20072;-68
2022/01/30 11:40:37;;;;;;;9.25;2.50;;;;;;;;;;5031108;28;20122;-68
2022/01/30 11:43:08;;;;;;;8.98;2.28;;;;;;;;;;5047607;28;20466;-67
2022/01/30 11:45:35;;;;;;;9.60;2.58;;;;;;;;;;5048785;28;20049;-68
2022/01/30 11:48:14;;;;;;;8.95;2.00;;;;;;;;;;5048060;28;20044;-67
2022/01/30 11:50:41;;;;;;;11.57;2.47;;;;;;;;;;5046179;28;20060;-68
2022/01/30 11:53:09;;;;;;;15.10;2.97;;;;;;;;;;5048736;28;20360;-68
2022/01/30 11:56:00;;;;;;;11.70;2.33;;;;;;;;;;5048321;28;20417;-69
2022/01/30 11:58:33;;;;;;;8.70;2.55;;;;;;;;;;5038064;28;20068;-68
2022/01/30 12:01:04;;;;;;;11.65;2.75;;;;;;;;;;5046004;28;20133;-68
2022/01/30 12:03:33;;;;;;;15.68;4.03;;;;;;;;;;5048002;28;20415;-69
2022/01/30 12:06:30;;;;;;;9.73;2.45;;;;;;;;;;5048520;28;20041;-68
2022/01/30 12:08:59;;;;;;;10.70;3.30;;;;;;;;;;5031943;28;20389;-67
2022/01/30 12:11:35;;;;;;;13.35;3.95;;;;;;;;;;5048454;28;20088;-67
2022/01/30 12:14:42;;;;;;;7.10;2.45;;;;;;;;;;5047300;28;20114;-67
2022/01/30 12:17:09;;;;;;;14.23;3.90;;;;;;;;;;5048124;28;20044;-68
2022/01/30 12:19:42;;;;;;;8.20;2.33;;;;;;;;;;5043144;28;20118;-68
2022/01/30 12:22:15;;;;;;;9.23;2.20;;;;;;;;;;5047861;28;20052;-66
2022/01/30 12:24:46;;;;;;;12.95;2.40;;;;;;;;;;5047974;28;20064;-67
2022/01/30 12:27:13;;;;;;;12.68;2.80;;;;;;;;;;5048459;28;20045;-67
2022/01/30 12:29:52;;;;;;;12.65;2.70;;;;;;;;;;5049172;28;20090;-67
2022/01/30 12:34:54;;;;;;;12.32;2.63;;;;;;;;;;5045796;28;20057;-70
2022/01/30 12:37:23;;;;;;;12.45;2.70;;;;;;;;;;5047941;28;20408;-68
2022/01/30 12:39:50;;;;;;;12.15;2.40;;;;;;;;;;5036643;28;20053;-68
2022/01/30 12:42:17;;;;;;;12.13;2.42;;;;;;;;;;5047354;28;20488;-68
2022/01/30 12:44:44;;;;;;;8.63;2.65;;;;;;;;;;5047637;28;20535;-68
2022/01/30 12:47:12;;;;;;;11.68;3.10;;;;;;;;;;5046412;28;20045;-69
2022/01/30 12:49:50;;;;;;;7.88;2.15;;;;;;;;;;5047505;28;20171;-67
2022/01/30 12:52:30;;;;;;;11.10;2.28;;;;;;;;;;5046815;28;20045;-68
2022/01/30 12:54:59;;;;;;;10.45;2.28;;;;;;;;;;5047148;28;20511;-68
2022/01/30 12:57:31;;;;;;;9.02;2.28;;;;;;;;;;5047003;28;20041;-68
2022/01/30 12:59:59;;;;;;;7.25;2.42;;;;;;;;;;5046650;28;20470;-68
2022/01/30 13:02:33;;;;;;;14.10;2.53;;;;;;;;;;5047598;28;20045;-68
2022/01/30 13:05:01;;;;;;;7.13;1.77;;;;;;;;;;5047795;28;20291;-68
2022/01/30 13:07:28;;;;;;;9.50;2.65;;;;;;;;;;5046620;28;20041;-68
2022/01/30 13:10:12;;;;;;;10.57;2.28;;;;;;;;;;5047741;28;20091;-68
2022/01/30 13:12:40;;;;;;;10.98;2.15;;;;;;;;;;5045949;28;20056;-66
2022/01/30 13:15:08;;;;;;;13.40;2.38;;;;;;;;;;5048596;28;20130;-68
2022/01/30 13:17:35;;;;;;;13.52;4.65;;;;;;;;;;5049524;28;20126;-66
2022/01/30 13:20:03;;;;;;;10.80;3.17;;;;;;;;;;5050831;28;20405;-69
2022/01/30 13:22:34;;;;;;;7.75;2.65;;;;;;;;;;5048482;28;20056;-68
2022/01/30 13:25:06;;;;;;;16.20;4.00;;;;;;;;;;5044510;28;20049;-71
2022/01/30 13:27:35;;;;;;;16.10;2.92;;;;;;;;;;5045554;28;20049;-71
2022/01/30 13:30:03;;;;;;;15.15;2.80;;;;;;;;;;5052567;28;20049;-70
2022/01/30 13:32:29;;;;;;;17.05;2.95;;;;;;;;;;5052915;28;20052;-69
2022/01/30 13:34:59;;;;;;;10.65;2.00;;;;;;;;;;5053935;28;20048;-71
2022/01/30 13:37:26;;;;;;;8.32;2.53;;;;;;;;;;5053969;28;20094;-71
2022/01/30 13:47:33;;;;;;;12.95;2.15;;;;;;;;;;5052509;28;20420;-73
2022/01/30 13:50:00;;;;;;;11.18;2.20;;;;;;;;;;5052380;28;20492;-71
2022/01/30 13:52:31;;;;;;;8.95;2.08;;;;;;;;;;5037961;28;20083;-72
2022/01/30 13:55:05;;;;;;;5.82;1.98;;;;;;;;;;5051775;28;20048;-71
2022/01/30 13:57:33;;;;;;;16.33;3.13;;;;;;;;;;5050538;28;20135;-67
2022/01/30 14:00:08;;;;;;;8.57;2.17;;;;;;;;;;5050660;28;20059;-67
2022/01/30 14:02:34;;;;;;;13.23;2.50;;;;;;;;;;5050023;28;20095;-66
2022/01/30 14:05:26;;;;;;;6.80;1.60;;;;;;;;;;5047102;28;20052;-64
2022/01/30 14:07:53;;;;;;;9.02;2.50;;;;;;;;;;5037408;28;20053;-64
2022/01/30 14:10:22;;;;;;;7.00;1.88;;;;;;;;;;5050328;28;20476;-64
2022/01/30 14:12:53;;;;;;;11.30;2.40;;;;;;;;;;5049454;28;20053;-65
2022/01/30 14:15:21;;;;;;;10.45;2.15;;;;;;;;;;5050045;28;20056;-65
2022/01/30 14:18:13;;;;;;;9.27;2.25;;;;;;;;;;5049976;28;20081;-66
2022/01/30 14:20:41;;;;;;;12.45;2.42;;;;;;;;;;5050025;28;20098;-66
2022/01/30 14:23:11;;;;;;;9.82;2.10;;;;;;;;;;5047885;28;20488;-65
2022/01/30 14:25:43;;;;;;;7.28;1.95;;;;;;;;;;5048702;28;20049;-66
2022/01/30 14:28:30;;;;;;;9.27;2.25;;;;;;;;;;5049993;28;20041;-66
2022/01/30 14:31:00;;;;;;;15.90;2.38;;;;;;;;;;5049278;28;20057;-67
2022/01/30 14:33:29;;;;;;;8.10;2.00;;;;;;;;;;5049426;28;20060;-68
2022/01/30 14:35:56;;;;;;;9.80;2.40;;;;;;;;;;5050146;28;20051;-66
2022/01/30 14:38:23;;;;;;;10.13;2.63;;;;;;;;;;5049288;28;20115;-68
2022/01/30 14:40:53;;;;;;;8.07;1.70;;;;;;;;;;5049591;28;20484;-67
2022/01/30 14:43:20;;;;;;;9.05;2.20;;;;;;;;;;5049069;28;20111;-66
2022/01/30 14:45:48;;;;;;;7.05;2.22;;;;;;;;;;5049515;28;20432;-66
2022/01/30 14:48:14;;;;;;;9.45;2.30;;;;;;;;;;5049796;28;20146;-68
2022/01/30 14:50:44;;;;;;;9.65;2.88;;;;;;;;;;5049679;28;20114;-67
2022/01/30 14:53:11;;;;;;;7.70;2.25;;;;;;;;;;5049736;28;20045;-68
2022/01/30 14:55:39;;;;;;;13.27;2.58;;;;;;;;;;5049166;28;20087;-67
2022/01/30 14:58:06;;;;;;;9.35;1.67;;;;;;;;;;5049536;28;20099;-68
2022/01/30 15:00:36;;;;;;;13.45;2.72;;;;;;;;;;5049319;28;20060;-68
2022/01/30 15:03:04;;;;;;;6.88;2.83;;;;;;;;;;5044612;28;20049;-68
2022/01/30 15:05:32;;;;;;;11.07;2.65;;;;;;;;;;5048502;28;20049;-68
2022/01/30 15:07:59;;;;;;;8.68;2.15;;;;;;;;;;5048769;28;20496;-68
2022/01/30 15:10:27;;;;;;;12.60;2.30;;;;;;;;;;5049197;28;20057;-67
2022/01/30 15:12:54;;;;;;;13.07;3.28;;;;;;;;;;5048508;28;20053;-67
2022/01/30 15:15:22;;;;;;;12.77;2.28;;;;;;;;;;5046896;28;20053;-67
2022/01/30 15:17:53;;;;;;;8.02;1.83;;;;;;;;;;5048568;28;20049;-67
2022/01/30 15:20:20;;;;;;;7.03;2.22;;;;;;;;;;5048762;28;20064;-67
2022/01/30 15:22:47;;;;;;;7.38;2.03;;;;;;;;;;5048492;28;20071;-68
2022/01/30 15:25:14;;;;;;;11.82;3.25;;;;;;;;;;5049275;28;20093;-67
2022/01/30 15:27:42;;;;;;;15.32;2.80;;;;;;;;;;5048370;28;20420;-68
2022/01/30 15:30:11;;;;;;;8.10;1.80;;;;;;;;;;5035767;28;20452;-68
2022/01/30 15:32:38;;;;;;;13.20;2.90;;;;;;;;;;5048407;28;20045;-68
2022/01/30 15:35:06;;;;;;;11.45;2.97;;;;;;;;;;5048714;28;20056;-67
2022/01/30 15:37:33;;;;;;;12.75;2.33;;;;;;;;;;5029890;28;20049;-66
2022/01/30 15:40:00;;;;;;;9.15;2.42;;;;;;;;;;5048406;28;20499;-67
2022/01/30 15:42:27;;;;;;;15.20;2.83;;;;;;;;;;5046256;28;20486;-67
2022/01/30 15:50:10;;;;;;;12.60;2.72;;;;;;;;;;5048596;28;20045;-66
2022/01/30 15:52:36;;;;;;;10.63;2.60;;;;;;;;;;5047820;28;20103;-67
2022/01/30 15:55:04;;;;;;;6.60;2.60;;;;;;;;;;5036988;28;20041;-67
2022/01/30 15:57:30;;;;;;;9.02;2.80;;;;;;;;;;5048214;28;20049;-67
2022/01/30 15:59:57;;;;;;;7.72;2.22;;;;;;;;;;5048770;28;20084;-68